createdAt,value
2019-05-12T00:02:14.063Z,5.60
2019-05-12T00:04:40.221Z,5.60
2019-05-12T00:07:08.565Z,5.60
2019-05-12T00:09:34.283Z,5.50
2019-05-12T00:12:00.735Z,5.50
2019-05-12T00:14:28.282Z,5.50
2019-05-12T00:16:54.548Z,5.50
2019-05-12T00:19:20.608Z,5.50
2019-05-12T00:21:48.278Z,5.40
2019-05-12T00:24:15.027Z,5.40
2019-05-12T00:26:41.197Z,5.40
2019-05-12T00:29:07.786Z,5.40
2019-05-12T00:31:34.311Z,5.30
2019-05-12T00:34:00.363Z,5.30
2019-05-12T00:36:29.050Z,5.30
2019-05-12T00:38:54.404Z,5.20
2019-05-12T00:41:20.459Z,5.20
2019-05-12T00:43:48.699Z,5.20
2019-05-12T00:46:14.496Z,5.10
2019-05-12T00:48:40.539Z,5.10
2019-05-12T00:51:07.794Z,5.10
2019-05-12T00:53:39.829Z,5.10
2019-05-12T00:56:02.081Z,5.00
2019-05-12T00:58:28.135Z,5.00
2019-05-12T01:00:54.209Z,4.90
2019-05-12T01:03:20.259Z,4.90
2019-05-12T01:05:48.470Z,4.80
2019-05-12T01:08:14.268Z,4.70
2019-05-12T01:10:40.315Z,4.70
2019-05-12T01:13:08.520Z,4.60
2019-05-12T01:15:34.375Z,4.50
2019-05-12T01:18:00.528Z,4.50
2019-05-12T01:20:28.257Z,4.50
2019-05-12T01:22:54.548Z,4.40
2019-05-12T01:25:20.627Z,4.40
2019-05-12T01:27:48.349Z,4.30
2019-05-12T01:32:43.678Z,4.20
2019-05-12T01:35:10.151Z,4.20
2019-05-12T01:37:38.296Z,4.20
2019-05-12T01:40:05.384Z,4.20
2019-05-12T01:42:31.436Z,4.10
2019-05-12T01:44:58.452Z,4.10
2019-05-12T01:47:25.358Z,4.10
2019-05-12T01:49:51.417Z,4.00
2019-05-12T01:52:17.880Z,4.00
2019-05-12T01:54:44.132Z,4.00
2019-05-12T01:57:10.188Z,4.00
2019-05-12T01:59:38.134Z,3.90
2019-05-12T05:13:46.052Z,7.10
2019-05-12T05:16:14.413Z,7.00
2019-05-12T05:18:40.927Z,7.20
2019-05-12T05:21:07.157Z,7.50
2019-05-12T05:23:33.494Z,7.70
2019-05-12T05:26:00.052Z,8.00
2019-05-12T05:28:26.129Z,8.50
2019-05-12T05:30:53.451Z,8.90
2019-05-12T05:33:20.105Z,9.30
2019-05-12T05:38:19.057Z,10.20
2019-05-12T05:40:40.626Z,10.50
2019-05-12T05:43:18.281Z,10.90
2019-05-12T05:45:35.351Z,11.10
2019-05-12T05:48:05.477Z,11.30
2019-05-12T05:50:29.807Z,11.30
2019-05-12T05:52:56.116Z,11.40
2019-05-12T05:55:23.373Z,11.30
2019-05-12T05:57:49.656Z,11.30
2019-05-12T06:00:22.904Z,11.30
2019-05-12T06:02:44.708Z,11.30
2019-05-12T06:05:11.096Z,11.30
2019-05-12T06:07:39.127Z,11.30
2019-05-12T06:10:06.315Z,11.20
2019-05-12T06:12:33.469Z,11.20
2019-05-12T06:15:00.028Z,11.10
2019-05-12T06:17:26.248Z,11.00
2019-05-12T06:19:53.876Z,10.80
2019-05-12T06:22:20.167Z,10.50
2019-05-12T06:24:49.042Z,10.30
2019-05-12T06:27:20.593Z,10.20
2019-05-12T06:29:43.746Z,10.10
2019-05-12T06:32:11.068Z,9.90
2019-05-12T06:34:37.258Z,9.80
2019-05-12T06:37:11.764Z,9.70
2019-05-12T06:39:31.267Z,9.60
2019-05-12T06:42:08.709Z,9.60
2019-05-12T06:44:25.307Z,9.50
2019-05-12T06:46:53.487Z,9.40
2019-05-12T06:49:19.376Z,9.50
2019-05-12T06:51:45.423Z,9.40
2019-05-12T06:54:12.640Z,9.50
2019-05-12T06:56:39.535Z,9.40
2019-05-12T06:59:09.866Z,9.50
2019-05-12T07:01:33.634Z,9.60
2019-05-12T07:04:00.579Z,9.70
2019-05-12T07:06:27.776Z,9.80
2019-05-12T07:09:03.574Z,9.80
2019-05-12T07:11:24.138Z,9.90
2019-05-12T07:14:01.252Z,9.90
2019-05-12T07:16:23.231Z,10.00
2019-05-12T07:18:46.390Z,10.10
2019-05-12T07:21:15.543Z,10.20
2019-05-12T07:23:40.523Z,10.30
2019-05-12T07:26:14.170Z,10.30
2019-05-12T07:28:36.313Z,10.30
2019-05-12T07:31:03.910Z,10.30
2019-05-12T07:33:35.244Z,10.30
2019-05-12T07:36:01.375Z,10.30
2019-05-12T07:38:29.030Z,10.40
2019-05-12T07:40:55.074Z,10.40
2019-05-12T07:43:24.273Z,10.50
2019-05-12T07:45:56.226Z,10.60
2019-05-12T07:48:18.676Z,10.50
2019-05-12T07:50:44.726Z,10.60
2019-05-12T07:53:10.779Z,10.70
2019-05-12T07:55:39.574Z,10.70
2019-05-12T07:58:13.731Z,10.80
2019-05-12T08:00:33.905Z,10.90
2019-05-12T08:03:00.333Z,10.90
2019-05-12T08:05:26.484Z,11.00
2019-05-12T08:07:53.590Z,11.20
2019-05-12T08:10:20.266Z,11.30
2019-05-12T08:12:51.035Z,11.30
2019-05-12T08:15:14.791Z,11.50
2019-05-12T08:17:40.961Z,11.70
2019-05-12T08:20:07.342Z,11.70
2019-05-12T08:22:34.620Z,11.70
2019-05-12T08:25:00.988Z,11.70
2019-05-12T08:27:27.049Z,11.80
2019-05-12T08:30:00.922Z,11.80
2019-05-12T08:32:23.267Z,11.90
2019-05-12T08:34:49.073Z,12.10
2019-05-12T08:37:15.211Z,12.20
2019-05-12T08:39:41.288Z,12.30
2019-05-12T08:42:07.945Z,12.30
2019-05-12T08:44:40.405Z,12.20
2019-05-12T08:47:03.972Z,12.20
2019-05-12T08:49:35.850Z,12.20
2019-05-12T08:52:00.207Z,12.30
2019-05-12T08:54:26.019Z,12.30
2019-05-12T08:56:59.327Z,12.30
2019-05-12T08:59:26.716Z,12.40
2019-05-12T09:01:50.744Z,12.40
2019-05-12T09:04:18.340Z,12.50
2019-05-12T09:06:45.065Z,12.60
2019-05-12T09:09:11.135Z,12.70
2019-05-12T09:11:37.198Z,12.70
2019-05-12T09:14:05.706Z,12.80
2019-05-12T09:16:33.168Z,12.80
2019-05-12T09:18:59.755Z,12.90
2019-05-12T09:21:31.934Z,13.00
2019-05-12T09:23:56.108Z,13.00
2019-05-12T09:26:26.643Z,13.10
2019-05-12T09:28:50.627Z,13.10
2019-05-12T09:31:19.334Z,13.20
2019-05-12T09:33:45.013Z,13.20
2019-05-12T09:36:11.372Z,13.20
2019-05-12T09:38:40.982Z,13.30
2019-05-12T09:41:07.030Z,13.30
2019-05-12T09:43:34.387Z,13.40
2019-05-12T09:46:00.676Z,13.40
2019-05-12T09:48:26.996Z,13.50
2019-05-12T09:51:00.447Z,13.50
2019-05-12T09:53:23.579Z,13.50
2019-05-12T09:55:49.048Z,13.50
2019-05-12T09:58:23.111Z,13.60
2019-05-12T10:00:43.512Z,13.60
2019-05-12T10:03:09.874Z,13.60
2019-05-12T10:05:41.017Z,13.70
2019-05-12T10:08:04.750Z,13.70
2019-05-12T10:10:38.191Z,13.70
2019-05-12T10:12:59.096Z,13.80
2019-05-12T10:15:28.807Z,13.80
2019-05-12T10:17:55.135Z,13.90
2019-05-12T10:20:21.627Z,14.00
2019-05-12T10:22:48.050Z,14.00
2019-05-12T10:25:14.825Z,14.00
2019-05-12T10:27:41.007Z,14.20
2019-05-12T10:30:12.093Z,14.20
2019-05-12T10:32:38.415Z,14.40
2019-05-12T10:35:06.379Z,14.40
2019-05-12T10:37:33.131Z,14.40
2019-05-12T10:39:59.340Z,14.50
2019-05-12T10:42:25.384Z,14.50
2019-05-12T10:44:54.411Z,14.60
2019-05-12T10:47:19.446Z,14.70
2019-05-12T10:49:45.633Z,14.70
2019-05-12T10:52:13.825Z,14.60
2019-05-12T10:54:40.125Z,14.60
2019-05-12T10:57:06.317Z,14.70
2019-05-12T10:59:33.684Z,14.80
2019-05-12T11:02:00.535Z,14.90
2019-05-12T11:04:35.595Z,15.10
2019-05-12T11:06:54.632Z,15.10
2019-05-12T11:09:21.371Z,15.00
2019-05-12T11:11:48.718Z,14.90
2019-05-12T11:14:14.909Z,14.70
2019-05-12T11:16:42.534Z,14.70
2019-05-12T11:19:10.630Z,14.60
2019-05-12T11:21:37.167Z,14.40
2019-05-12T11:24:03.835Z,14.30
2019-05-12T11:26:30.289Z,14.20
2019-05-12T11:28:56.480Z,14.10
2019-05-12T11:31:24.347Z,14.30
2019-05-12T11:33:50.669Z,14.40
2019-05-12T11:36:16.834Z,14.50
2019-05-12T11:38:44.400Z,14.70
2019-05-12T11:41:16.099Z,14.80
2019-05-12T11:43:38.936Z,14.90
2019-05-12T11:46:05.668Z,15.00
2019-05-12T11:48:33.708Z,15.20
2019-05-12T11:50:59.720Z,15.20
2019-05-12T11:53:31.183Z,15.10
2019-05-12T11:55:54.430Z,14.80
2019-05-12T11:58:20.754Z,14.70
2019-05-12T12:00:48.758Z,14.60
2019-05-12T12:03:17.913Z,14.60
2019-05-12T12:05:44.288Z,14.40
2019-05-12T12:08:10.738Z,14.30
2019-05-12T12:10:39.788Z,14.30
2019-05-12T12:13:04.931Z,14.10
2019-05-12T12:15:30.986Z,14.10
2019-05-12T12:17:57.159Z,14.30
2019-05-12T12:20:24.394Z,14.40
2019-05-12T12:22:50.586Z,14.40
2019-05-12T12:25:18.743Z,14.50
2019-05-12T12:27:44.824Z,14.70
2019-05-12T12:30:19.257Z,14.90
2019-05-12T12:32:40.953Z,15.10
2019-05-12T12:35:11.910Z,15.20
2019-05-12T12:37:36.113Z,15.20
2019-05-12T12:40:04.286Z,15.00
2019-05-12T12:42:38.515Z,14.90
2019-05-12T12:45:00.652Z,14.80
2019-05-12T12:47:26.810Z,14.80
2019-05-12T12:49:52.904Z,14.90
2019-05-12T12:52:18.979Z,14.90
2019-05-12T12:54:45.063Z,14.80
2019-05-12T12:57:13.460Z,14.80
2019-05-12T12:59:42.880Z,14.80
2019-05-12T13:02:09.130Z,14.70
2019-05-12T13:04:39.531Z,14.70
2019-05-12T13:07:04.622Z,14.80
2019-05-12T13:09:33.269Z,14.80
2019-05-12T13:11:58.947Z,14.90
2019-05-12T13:14:28.517Z,14.80
2019-05-12T13:16:54.683Z,14.80
2019-05-12T13:19:21.024Z,14.70
2019-05-12T13:21:47.103Z,14.70
2019-05-12T13:24:13.351Z,14.80
2019-05-12T13:26:39.501Z,15.20
2019-05-12T13:29:05.659Z,14.60
2019-05-12T13:31:33.310Z,14.40
2019-05-12T13:33:59.549Z,14.30
2019-05-12T13:36:29.494Z,14.30
2019-05-12T13:38:53.781Z,14.30
2019-05-12T13:41:20.190Z,14.30
2019-05-12T13:43:54.447Z,14.40
2019-05-12T13:46:14.509Z,14.40
2019-05-12T13:48:40.749Z,14.50
2019-05-12T13:51:12.369Z,14.40
2019-05-12T13:53:34.893Z,14.30
2019-05-12T13:56:01.145Z,14.20
2019-05-12T13:58:33.619Z,14.00
2019-05-12T14:01:10.589Z,13.80
2019-05-12T14:03:27.930Z,13.80
2019-05-12T14:05:55.237Z,13.70
2019-05-12T14:08:23.678Z,13.70
2019-05-12T14:10:53.827Z,13.80
2019-05-12T14:13:17.576Z,13.90
2019-05-12T14:15:44.285Z,14.10
2019-05-12T14:18:18.485Z,14.30
2019-05-12T14:20:38.951Z,14.50
2019-05-12T14:23:05.004Z,14.70
2019-05-12T14:25:32.867Z,14.90
2019-05-12T14:27:59.469Z,15.00
2019-05-12T14:30:27.056Z,14.90
2019-05-12T14:32:55.150Z,14.90
2019-05-12T14:35:21.195Z,14.70
2019-05-12T14:37:47.596Z,14.50
2019-05-12T14:40:14.008Z,14.40
2019-05-12T14:42:40.116Z,14.50
2019-05-12T14:45:06.864Z,14.40
2019-05-12T14:47:33.978Z,14.50
2019-05-12T14:50:00.300Z,14.50
2019-05-12T14:52:26.508Z,14.60
2019-05-12T14:54:54.188Z,14.60
2019-05-12T14:57:20.348Z,14.70
2019-05-12T14:59:46.454Z,14.70
2019-05-12T15:02:13.619Z,14.50
2019-05-12T15:04:39.948Z,14.50
2019-05-12T15:07:09.986Z,14.40
2019-05-12T15:09:34.187Z,14.40
2019-05-12T15:12:00.469Z,14.40
2019-05-12T15:14:32.591Z,14.30
2019-05-12T15:16:55.641Z,14.30
2019-05-12T15:19:27.841Z,14.30
2019-05-12T15:21:50.027Z,14.40
2019-05-12T15:24:18.980Z,14.40
2019-05-12T15:26:44.286Z,14.30
2019-05-12T15:29:13.356Z,14.30
2019-05-12T15:31:51.679Z,14.30
2019-05-12T15:34:06.607Z,14.30
2019-05-12T15:36:33.666Z,14.30
2019-05-12T15:38:59.870Z,13.40
2019-05-12T15:41:25.931Z,14.10
2019-05-12T15:43:53.629Z,14.10
2019-05-12T15:46:20.091Z,14.00
2019-05-12T15:48:46.400Z,13.80
2019-05-12T15:51:13.646Z,13.80
2019-05-12T15:53:40.090Z,13.80
2019-05-12T15:56:15.046Z,13.90
2019-05-12T15:58:34.403Z,13.80
2019-05-12T16:01:00.637Z,13.80
2019-05-12T16:03:26.901Z,13.70
2019-05-12T16:05:53.495Z,13.70
2019-05-12T16:08:19.667Z,13.70
2019-05-12T16:10:45.769Z,13.70
2019-05-12T16:13:15.468Z,13.60
2019-05-12T16:15:40.120Z,13.60
2019-05-12T16:18:09.930Z,13.60
2019-05-12T16:20:34.461Z,13.60
2019-05-12T16:23:06.690Z,13.60
2019-05-12T16:25:34.121Z,13.50
2019-05-12T16:28:00.531Z,13.40
2019-05-12T16:30:27.236Z,13.30
2019-05-12T16:32:55.123Z,13.30
2019-05-12T16:35:26.442Z,13.20
2019-05-12T16:37:49.467Z,13.20
2019-05-12T16:40:15.953Z,13.20
2019-05-12T16:42:48.046Z,13.20
2019-05-12T16:45:10.696Z,13.20
2019-05-12T16:47:36.853Z,13.20
2019-05-12T16:50:15.216Z,13.20
2019-05-12T16:52:40.611Z,13.20
2019-05-12T16:55:05.902Z,13.10
2019-05-12T16:57:33.625Z,13.10
2019-05-12T17:00:03.547Z,13.10
2019-05-12T17:02:39.499Z,13.10
2019-05-12T17:04:56.167Z,13.10
2019-05-12T17:07:26.690Z,13.00
2019-05-12T17:09:50.273Z,13.00
2019-05-12T17:12:16.354Z,12.90
2019-05-12T17:14:45.662Z,12.90
2019-05-12T17:17:10.985Z,12.80
2019-05-12T17:19:37.248Z,12.80
2019-05-12T17:22:04.074Z,12.80
2019-05-12T17:24:30.361Z,12.70
2019-05-12T17:26:56.459Z,12.60
2019-05-12T17:29:24.179Z,12.60
2019-05-12T17:31:50.557Z,12.50
2019-05-12T17:34:16.616Z,12.50
2019-05-12T17:36:44.672Z,12.40
2019-05-12T17:39:10.683Z,12.40
2019-05-12T17:41:42.246Z,12.30
2019-05-12T17:44:04.930Z,12.30
2019-05-12T17:46:32.471Z,12.20
2019-05-12T17:48:59.409Z,12.20
2019-05-12T17:51:29.069Z,12.20
2019-05-12T17:53:54.075Z,12.20
2019-05-12T17:56:25.153Z,12.30
2019-05-12T17:58:48.690Z,12.30
2019-05-12T18:01:14.835Z,12.30
2019-05-12T18:03:48.630Z,12.40
2019-05-12T18:06:09.055Z,12.60
2019-05-12T18:08:38.192Z,12.70
2019-05-12T18:11:03.732Z,12.40
2019-05-12T18:13:30.536Z,12.70
2019-05-12T18:15:56.758Z,12.60
2019-05-12T18:18:32.004Z,12.40
2019-05-12T18:20:50.988Z,12.10
2019-05-12T18:23:19.749Z,11.90
2019-05-12T18:25:45.312Z,11.70
2019-05-12T18:28:13.828Z,11.50
2019-05-12T18:30:39.508Z,11.40
2019-05-12T18:33:08.755Z,11.10
2019-05-12T18:35:33.763Z,11.00
2019-05-12T18:37:59.866Z,10.80
2019-05-12T18:40:28.101Z,10.70
2019-05-12T18:42:53.921Z,10.60
2019-05-12T18:45:20.239Z,10.40
2019-05-12T18:47:46.404Z,10.30
2019-05-12T18:50:13.997Z,10.30
2019-05-12T18:52:43.611Z,10.20
2019-05-12T18:55:08.974Z,10.10
2019-05-12T18:57:39.076Z,10.00
2019-05-12T19:00:07.281Z,9.90
2019-05-12T19:02:33.642Z,9.70
2019-05-12T19:04:59.792Z,9.70
2019-05-12T19:07:39.404Z,9.70
2019-05-12T19:09:54.049Z,9.60
2019-05-12T19:12:22.528Z,9.50
2019-05-12T19:14:51.761Z,9.40
2019-05-12T19:17:16.615Z,9.30
2019-05-12T19:19:45.967Z,9.20
2019-05-12T19:22:13.930Z,9.10
2019-05-12T19:24:39.364Z,9.10
2019-05-12T19:27:10.446Z,9.00
2019-05-12T19:29:38.746Z,8.80
2019-05-12T19:32:04.333Z,8.80
2019-05-12T19:34:31.863Z,8.70
2019-05-12T19:36:57.480Z,8.60
2019-05-12T19:39:25.443Z,8.60
2019-05-12T19:41:54.161Z,8.60
2019-05-12T19:44:19.859Z,8.60
2019-05-12T19:46:49.435Z,8.50
2019-05-12T19:49:20.186Z,8.50
2019-05-12T19:51:43.875Z,8.40
2019-05-12T19:54:10.350Z,8.40
2019-05-12T19:56:39.588Z,8.30
2019-05-12T19:59:04.530Z,8.30
2019-05-12T20:01:32.750Z,8.20
2019-05-12T20:03:58.769Z,8.20
2019-05-12T20:06:25.046Z,8.10
2019-05-12T20:08:55.732Z,8.10
2019-05-12T20:11:20.210Z,8.00
2019-05-12T20:13:47.747Z,7.90
2019-05-12T20:16:21.584Z,7.90
2019-05-12T20:18:44.093Z,7.90
2019-05-12T20:21:10.194Z,7.90
2019-05-12T20:23:36.401Z,7.80
2019-05-12T20:26:03.980Z,7.80
2019-05-12T20:28:30.290Z,7.80
2019-05-12T20:31:01.093Z,7.70
2019-05-12T20:33:24.400Z,7.60
2019-05-12T20:35:50.797Z,7.50
2019-05-12T20:38:17.023Z,7.50
2019-05-12T20:40:43.386Z,7.40
2019-05-12T20:43:13.857Z,7.40
2019-05-12T20:45:40.649Z,7.40
2019-05-12T20:48:05.780Z,7.30
2019-05-12T20:50:34.306Z,7.30
2019-05-12T20:53:03.833Z,7.20
2019-05-12T20:55:35.003Z,7.20
2019-05-12T20:57:58.100Z,7.10
2019-05-12T21:00:24.694Z,7.10
2019-05-12T21:02:58.585Z,7.00
2019-05-12T21:05:24.808Z,6.90
2019-05-12T21:07:55.918Z,6.90
2019-05-12T21:10:19.985Z,6.80
2019-05-12T21:12:50.062Z,6.80
2019-05-12T21:15:20.103Z,6.70
2019-05-12T21:17:46.491Z,6.60
2019-05-12T21:20:14.284Z,6.60
2019-05-12T21:22:39.503Z,6.70
2019-05-12T21:25:10.498Z,6.50
2019-05-12T21:27:33.902Z,6.50
2019-05-12T21:30:00.762Z,6.60
2019-05-12T21:32:28.083Z,6.50
2019-05-12T21:34:57.679Z,6.50
2019-05-12T21:37:25.034Z,6.40
2019-05-12T21:39:51.145Z,6.50
2019-05-12T21:42:17.316Z,6.40
2019-05-12T21:44:47.017Z,6.40
2019-05-12T21:47:13.758Z,6.50
2019-05-12T21:49:42.805Z,6.30
2019-05-12T21:52:08.324Z,6.40
2019-05-12T21:54:36.178Z,6.30
2019-05-12T21:57:02.558Z,6.30
2019-05-12T21:59:34.053Z,6.20
2019-05-12T22:01:56.718Z,6.20
2019-05-12T22:04:23.572Z,6.20
2019-05-12T22:06:51.248Z,6.10
2019-05-12T22:09:17.751Z,6.10
2019-05-12T22:11:50.635Z,6.00
2019-05-12T22:14:13.625Z,6.00
2019-05-12T22:16:46.103Z,6.00
2019-05-12T22:19:09.843Z,5.90
2019-05-12T22:21:43.576Z,5.90
2019-05-12T22:24:06.178Z,5.90
2019-05-12T22:26:39.539Z,5.80
2019-05-12T22:28:59.843Z,5.80
2019-05-12T22:31:25.939Z,5.80
2019-05-12T22:33:55.788Z,5.80
2019-05-12T22:36:25.697Z,5.70
2019-05-12T22:38:52.056Z,5.60
2019-05-12T22:41:15.963Z,5.60
2019-05-12T22:43:45.681Z,5.50
2019-05-12T22:46:10.058Z,5.50
2019-05-12T22:48:40.442Z,5.40
2019-05-12T22:51:06.068Z,5.40
2019-05-12T22:53:32.580Z,5.40
2019-05-12T22:56:02.859Z,5.30
2019-05-12T22:58:27.091Z,5.30
2019-05-12T23:01:00.648Z,5.30
2019-05-12T23:03:21.206Z,5.30
2019-05-12T23:05:50.738Z,5.30
2019-05-12T23:08:15.572Z,5.10
2019-05-12T23:10:51.109Z,5.20
2019-05-12T23:13:09.711Z,5.20
2019-05-12T23:15:38.733Z,5.10
2019-05-12T23:18:04.379Z,5.10
2019-05-12T23:20:31.137Z,5.10
2019-05-12T23:22:58.631Z,5.10
2019-05-12T23:25:24.855Z,5.10
2019-05-12T23:27:51.047Z,5.00
2019-05-12T23:30:17.255Z,4.90
2019-05-12T23:32:51.534Z,4.90
2019-05-12T23:35:11.560Z,4.80
2019-05-12T23:37:40.095Z,4.80
2019-05-12T23:40:11.530Z,4.70
2019-05-12T23:42:34.384Z,4.70
2019-05-12T23:45:00.540Z,4.60
2019-05-12T23:47:26.623Z,4.60
2019-05-12T23:49:53.208Z,4.60
2019-05-12T23:52:19.423Z,4.60
2019-05-12T23:54:45.524Z,4.50
2019-05-12T23:57:13.638Z,4.50
2019-05-12T23:59:41.088Z,4.50
